Time;durP1;ratioP1;P1;durP2;ratioP2;P2;SDS_P1;SDS_P2;PMS_P1;PMS_P2;Temp;Humidity;BMP_temperature;BMP_pressure;BME280_temperature;BME280_humidity;BME280_pressure;Samples;Min_cycle;Max_cycle;Signal;HPM_P1;HPM_P2
2022/03/02 00:02:28;;;;;;;20.60;10.82;;;2.00;52.40;;;;;;7376097;19;20211;-45
2022/03/02 00:04:57;;;;;;;39.40;16.35;;;2.10;52.50;;;;;;7377152;19;20131;-44
2022/03/02 00:07:29;;;;;;;23.27;12.57;;;2.20;52.60;;;;;;7376318;19;20135;-45
2022/03/02 00:10:01;;;;;;;26.85;12.30;;;2.20;52.60;;;;;;7373689;19;20123;-44
2022/03/02 00:12:33;;;;;;;40.42;13.73;;;2.20;52.70;;;;;;7371817;19;20665;-44
2022/03/02 00:15:06;;;;;;;27.13;12.75;;;2.20;52.50;;;;;;7373676;19;20173;-43
2022/03/02 00:17:37;;;;;;;22.85;10.60;;;2.10;52.40;;;;;;7371494;19;20127;-44
2022/03/02 00:20:10;;;;;;;15.07;9.20;;;2.10;52.90;;;;;;7378380;19;20136;-44
2022/03/02 00:22:42;;;;;;;16.50;7.90;;;2.00;52.20;;;;;;7377478;19;20138;-44
2022/03/02 00:25:12;;;;;;;11.52;8.02;;;2.00;51.20;;;;;;7380266;19;20614;-44
2022/03/02 00:27:42;;;;;;;19.23;10.07;;;2.00;51.10;;;;;;7371473;19;20135;-44
2022/03/02 00:30:16;;;;;;;18.33;9.68;;;2.20;50.70;;;;;;7376964;19;20142;-44
2022/03/02 00:32:49;;;;;;;12.85;9.63;;;2.10;51.40;;;;;;7376809;19;20154;-44
2022/03/02 00:35:18;;;;;;;20.05;11.23;;;2.30;51.20;;;;;;7376278;19;20180;-44
2022/03/02 00:37:50;;;;;;;17.15;10.35;;;2.40;50.90;;;;;;7375933;19;20128;-44
2022/03/02 00:40:22;;;;;;;15.18;9.30;;;2.50;50.40;;;;;;7374183;19;20142;-44
2022/03/02 00:42:52;;;;;;;20.08;10.27;;;2.60;50.60;;;;;;7378390;19;20165;-44
2022/03/02 00:45:21;;;;;;;27.15;11.95;;;2.60;50.60;;;;;;7378351;19;20783;-44
2022/03/02 00:47:53;;;;;;;23.60;11.13;;;2.70;50.20;;;;;;7379953;19;20479;-44
2022/03/02 00:50:26;;;;;;;36.75;16.10;;;2.80;50.10;;;;;;7378319;19;20123;-44
2022/03/02 00:53:02;;;;;;;15.98;9.90;;;2.80;50.30;;;;;;7379544;19;20159;-44
2022/03/02 00:55:34;;;;;;;13.82;8.98;;;2.80;50.60;;;;;;7374129;19;20127;-44
2022/03/02 00:58:05;;;;;;;11.88;8.15;;;2.70;50.60;;;;;;7372268;19;20131;-44
2022/03/02 01:00:35;;;;;;;14.02;8.85;;;2.70;50.40;;;;;;7375427;19;20127;-44
2022/03/02 01:03:09;;;;;;;13.30;8.68;;;2.70;50.40;;;;;;7369198;19;20142;-44
2022/03/02 01:05:41;;;;;;;14.73;8.52;;;2.70;50.20;;;;;;7375338;19;21131;-44
2022/03/02 01:08:16;;;;;;;12.10;8.32;;;2.70;50.50;;;;;;7372320;19;20645;-44
2022/03/02 01:10:47;;;;;;;20.40;11.93;;;2.60;50.80;;;;;;7375317;19;20131;-44
2022/03/02 01:13:17;;;;;;;20.70;9.98;;;2.60;51.30;;;;;;7377107;19;20139;-44
2022/03/02 01:15:49;;;;;;;16.20;10.45;;;2.50;51.00;;;;;;7379958;19;20139;-45
2022/03/02 01:18:21;;;;;;;14.73;10.15;;;2.80;50.80;;;;;;7372006;19;20142;-45
2022/03/02 01:20:51;;;;;;;24.50;11.65;;;2.80;51.50;;;;;;7378226;19;20227;-44
2022/03/02 01:23:25;;;;;;;14.50;9.27;;;2.70;52.00;;;;;;7376607;19;20130;-45
2022/03/02 01:25:55;;;;;;;10.93;8.00;;;2.60;52.00;;;;;;7378044;19;20139;-45
2022/03/02 01:28:27;;;;;;;16.90;9.13;;;2.60;52.40;;;;;;7376738;19;20862;-45
2022/03/02 01:30:59;;;;;;;31.00;13.48;;;2.40;52.80;;;;;;7376645;19;20131;-45
2022/03/02 01:33:29;;;;;;;26.70;12.27;;;2.50;52.60;;;;;;7377347;19;20159;-45
2022/03/02 01:36:00;;;;;;;30.80;13.20;;;2.40;52.50;;;;;;7376963;19;20194;-44
2022/03/02 01:38:32;;;;;;;45.20;18.13;;;2.40;52.90;;;;;;7376060;19;20496;-45
2022/03/02 01:41:05;;;;;;;22.15;12.55;;;2.40;53.00;;;;;;7376911;19;20139;-45
2022/03/02 01:43:34;;;;;;;43.90;18.75;;;2.40;53.40;;;;;;7376194;19;20142;-45
2022/03/02 01:46:04;;;;;;;19.35;9.52;;;2.40;53.40;;;;;;7372873;19;20601;-45
2022/03/02 01:48:33;;;;;;;22.25;10.90;;;2.40;53.30;;;;;;7374097;19;20128;-44
2022/03/02 01:51:05;;;;;;;19.27;9.85;;;2.30;53.00;;;;;;7373552;19;20135;-44
2022/03/02 01:53:38;;;;;;;13.23;8.20;;;2.20;53.80;;;;;;7374491;19;20139;-44
2022/03/02 01:56:08;;;;;;;12.30;8.13;;;2.20;53.20;;;;;;7371661;19;20135;-44
2022/03/02 01:58:38;;;;;;;17.23;8.23;;;2.20;53.40;;;;;;7374720;19;20521;-44
2022/03/02 02:01:08;;;;;;;19.35;10.90;;;2.10;53.10;;;;;;7376150;19;20747;-44
2022/03/02 02:03:41;;;;;;;17.48;10.55;;;2.10;53.40;;;;;;7373529;19;20498;-44
2022/03/02 02:06:11;;;;;;;15.98;8.00;;;2.00;53.50;;;;;;7362162;19;20135;-44
2022/03/02 02:08:44;;;;;;;17.77;10.00;;;2.00;53.40;;;;;;7370644;19;20157;-45
2022/03/02 02:11:15;;;;;;;16.88;8.82;;;2.00;53.50;;;;;;7373751;19;20181;-44
2022/03/02 02:13:44;;;;;;;18.50;9.38;;;2.00;53.50;;;;;;7373649;19;20151;-44
2022/03/02 02:16:17;;;;;;;13.68;8.88;;;1.90;53.20;;;;;;7370374;19;20478;-45
2022/03/02 02:19:06;;;;;;;16.73;8.13;;;1.80;53.20;;;;;;7368886;19;20168;-45
2022/03/02 02:21:38;;;;;;;13.75;8.20;;;1.80;52.90;;;;;;7368473;19;20608;-44
2022/03/02 02:24:09;;;;;;;17.00;8.88;;;1.70;53.00;;;;;;7372641;19;20135;-44
2022/03/02 02:26:38;;;;;;;13.05;8.20;;;1.70;53.10;;;;;;7373181;19;20136;-44
2022/03/02 02:29:10;;;;;;;14.98;9.00;;;1.80;53.10;;;;;;7367125;19;20147;-44
2022/03/02 02:31:43;;;;;;;12.70;8.30;;;1.80;53.10;;;;;;7373283;19;20151;-45
2022/03/02 02:34:19;;;;;;;39.30;16.23;;;1.90;52.90;;;;;;7372683;19;20167;-45
2022/03/02 02:36:51;;;;;;;19.73;12.18;;;1.90;53.10;;;;;;7377068;19;20152;-44
2022/03/02 02:39:21;;;;;;;15.07;8.65;;;1.90;53.00;;;;;;7372620;19;20603;-44
2022/03/02 02:41:53;;;;;;;16.98;9.93;;;1.70;53.50;;;;;;7378811;19;20131;-44
2022/03/02 02:44:25;;;;;;;26.70;12.35;;;1.80;54.50;;;;;;7372391;19;20499;-44
2022/03/02 02:46:55;;;;;;;17.35;9.10;;;1.70;54.20;;;;;;7370847;19;20156;-44
2022/03/02 02:49:25;;;;;;;17.88;11.32;;;1.70;53.60;;;;;;7352090;19;20120;-44
2022/03/02 02:51:57;;;;;;;17.48;10.18;;;1.70;53.70;;;;;;7370983;19;20119;-44
2022/03/02 02:54:26;;;;;;;18.60;9.13;;;1.60;53.90;;;;;;7366489;19;20693;-44
2022/03/02 02:56:56;;;;;;;12.05;8.40;;;1.60;53.80;;;;;;7369677;19;20131;-44
2022/03/02 02:59:25;;;;;;;12.90;7.95;;;1.60;53.80;;;;;;7372453;19;20471;-44
2022/03/02 03:01:55;;;;;;;13.45;8.50;;;1.60;53.80;;;;;;7367065;19;20210;-44
2022/03/02 03:04:27;;;;;;;13.98;9.20;;;1.60;54.00;;;;;;7372992;19;20948;-44
2022/03/02 03:07:02;;;;;;;11.27;7.80;;;1.50;54.60;;;;;;7372366;19;20139;-44
2022/03/02 03:09:32;;;;;;;11.73;8.65;;;1.40;54.80;;;;;;7371305;19;21371;-44
2022/03/02 03:12:02;;;;;;;15.75;8.52;;;1.40;54.70;;;;;;7350186;19;20155;-44
2022/03/02 03:14:31;;;;;;;11.98;9.43;;;1.40;54.50;;;;;;7369068;19;20139;-43
2022/03/02 03:17:00;;;;;;;13.15;7.65;;;1.30;54.20;;;;;;7371324;19;20131;-44
2022/03/02 03:19:32;;;;;;;14.88;8.85;;;1.30;54.20;;;;;;7368823;19;20656;-43
2022/03/02 03:22:09;;;;;;;14.68;8.57;;;1.30;54.20;;;;;;7370199;19;20132;-43
2022/03/02 03:24:38;;;;;;;13.65;7.95;;;1.30;54.60;;;;;;7370461;19;20131;-45
2022/03/02 03:27:07;;;;;;;14.10;8.07;;;1.30;54.40;;;;;;7373568;19;20166;-43
2022/03/02 03:29:37;;;;;;;12.40;7.82;;;1.20;54.30;;;;;;7378604;19;20207;-43
2022/03/02 03:32:08;;;;;;;17.38;10.25;;;1.30;54.20;;;;;;7377666;19;20144;-43
2022/03/02 03:34:42;;;;;;;16.75;8.82;;;1.40;53.40;;;;;;7353445;19;20159;-44
2022/03/02 03:37:19;;;;;;;11.25;8.30;;;1.40;52.90;;;;;;7369553;19;20142;-43
2022/03/02 03:39:49;;;;;;;12.55;8.68;;;1.40;53.50;;;;;;7377852;19;20139;-44
2022/03/02 03:42:18;;;;;;;16.23;9.88;;;1.40;54.00;;;;;;7381012;19;20542;-44
2022/03/02 03:44:48;;;;;;;16.77;8.57;;;1.40;54.40;;;;;;7379287;19;20128;-43
2022/03/02 03:47:17;;;;;;;13.88;8.95;;;1.40;54.20;;;;;;7375372;19;20199;-43
2022/03/02 03:49:47;;;;;;;13.25;8.48;;;1.40;54.30;;;;;;7371980;19;20224;-44
2022/03/02 03:52:19;;;;;;;15.55;9.27;;;1.30;54.60;;;;;;7377217;19;20646;-45
2022/03/02 03:54:49;;;;;;;14.68;8.60;;;1.20;54.80;;;;;;7372605;19;20134;-45
2022/03/02 03:57:18;;;;;;;15.95;8.50;;;1.20;55.20;;;;;;7352831;19;20135;-44
2022/03/02 03:59:48;;;;;;;11.10;8.32;;;1.20;55.00;;;;;;7368331;19;20124;-44
2022/03/02 04:02:17;;;;;;;10.63;8.50;;;1.10;55.40;;;;;;7375594;19;20144;-44
2022/03/02 04:04:50;;;;;;;15.00;9.00;;;1.00;55.40;;;;;;7379320;19;20129;-43
2022/03/02 04:07:22;;;;;;;16.20;9.85;;;1.10;55.40;;;;;;7377221;19;20235;-43
2022/03/02 04:09:52;;;;;;;13.30;9.77;;;1.00;55.60;;;;;;7377990;19;20507;-43
2022/03/02 04:12:26;;;;;;;18.33;9.30;;;1.10;56.00;;;;;;7373911;19;20127;-43
2022/03/02 04:14:55;;;;;;;12.57;8.95;;;1.00;55.60;;;;;;7377766;19;20135;-43
2022/03/02 04:17:28;;;;;;;15.52;10.00;;;1.00;55.70;;;;;;7379501;19;20265;-43
2022/03/02 04:19:57;;;;;;;17.48;9.60;;;0.90;56.20;;;;;;7381960;19;20132;-43
2022/03/02 04:22:29;;;;;;;14.90;8.63;;;1.00;56.70;;;;;;7374942;19;20226;-42
2022/03/02 04:25:01;;;;;;;12.95;9.13;;;0.90;56.50;;;;;;7378437;19;20763;-42
2022/03/02 04:27:31;;;;;;;10.73;8.20;;;0.90;56.10;;;;;;7375666;19;20608;-42
2022/03/02 04:30:03;;;;;;;12.30;8.52;;;0.90;55.70;;;;;;7376855;19;20407;-42
2022/03/02 04:32:35;;;;;;;18.92;9.43;;;0.90;55.30;;;;;;7375104;19;20155;-43
2022/03/02 04:35:04;;;;;;;17.13;8.80;;;1.00;56.00;;;;;;7376364;19;20155;-42
2022/03/02 04:37:37;;;;;;;11.65;8.55;;;1.10;56.00;;;;;;7376378;19;20432;-42
2022/03/02 04:40:12;;;;;;;13.45;9.38;;;1.00;56.00;;;;;;7375627;19;20138;-42
2022/03/02 04:42:42;;;;;;;13.13;9.02;;;1.00;55.80;;;;;;7371821;19;20128;-42
2022/03/02 04:45:12;;;;;;;14.07;9.50;;;0.90;55.60;;;;;;7370925;19;20892;-42
2022/03/02 04:47:45;;;;;;;14.73;9.02;;;0.90;56.30;;;;;;7374349;19;20617;-42
2022/03/02 04:50:19;;;;;;;14.27;9.93;;;0.90;56.40;;;;;;7374739;19;20588;-42
2022/03/02 04:52:52;;;;;;;12.55;8.50;;;0.90;56.30;;;;;;7377545;19;20613;-43
2022/03/02 04:55:22;;;;;;;14.98;9.00;;;1.00;56.50;;;;;;7379179;19;20135;-43
2022/03/02 04:57:54;;;;;;;18.45;9.38;;;0.90;56.40;;;;;;7382310;19;20127;-43
2022/03/02 05:00:28;;;;;;;19.90;10.40;;;0.90;56.50;;;;;;7374787;19;20427;-43
2022/03/02 05:02:59;;;;;;;19.80;10.23;;;0.90;56.00;;;;;;7376516;19;20134;-43
2022/03/02 05:05:32;;;;;;;16.67;8.68;;;1.00;55.60;;;;;;7373503;19;20143;-43
2022/03/02 05:08:10;;;;;;;13.23;8.65;;;0.90;55.90;;;;;;7376525;19;20235;-41
2022/03/02 05:10:40;;;;;;;15.18;8.40;;;0.80;56.60;;;;;;7376838;19;20128;-43
2022/03/02 05:13:09;;;;;;;13.20;7.90;;;0.80;56.60;;;;;;7367650;19;20638;-42
2022/03/02 05:15:39;;;;;;;12.75;8.38;;;0.80;56.10;;;;;;7369873;19;20160;-42
2022/03/02 05:18:08;;;;;;;13.25;8.88;;;0.90;56.20;;;;;;7376851;19;22576;-42
2022/03/02 05:20:43;;;;;;;14.10;9.20;;;1.00;56.10;;;;;;7371044;19;20118;-42
2022/03/02 05:23:15;;;;;;;14.52;8.68;;;1.00;55.40;;;;;;7373058;19;20145;-42
2022/03/02 05:25:46;;;;;;;14.23;8.25;;;1.10;55.20;;;;;;7374720;19;20201;-42
2022/03/02 05:28:16;;;;;;;14.73;9.35;;;1.20;55.20;;;;;;7375965;19;20161;-42
2022/03/02 05:30:45;;;;;;;14.18;9.80;;;1.20;55.10;;;;;;7374399;19;20198;-43
2022/03/02 05:33:15;;;;;;;13.13;8.68;;;1.20;54.80;;;;;;7373620;19;20222;-43
2022/03/02 05:35:44;;;;;;;16.05;9.88;;;1.20;54.60;;;;;;7375498;19;20159;-43
2022/03/02 05:38:16;;;;;;;15.10;8.27;;;1.10;54.50;;;;;;7374969;19;20165;-43
2022/03/02 05:40:46;;;;;;;15.55;9.63;;;1.10;55.00;;;;;;7375780;19;20136;-43
2022/03/02 05:43:15;;;;;;;13.27;9.40;;;1.00;55.60;;;;;;7374768;19;20602;-43
2022/03/02 05:45:45;;;;;;;16.75;9.35;;;1.10;55.40;;;;;;7375298;19;20130;-43
2022/03/02 05:48:19;;;;;;;13.55;8.15;;;1.10;54.90;;;;;;7377705;19;20656;-43
2022/03/02 05:50:51;;;;;;;18.08;8.77;;;1.10;54.50;;;;;;7371267;19;20128;-43
2022/03/02 05:53:23;;;;;;;14.45;9.52;;;1.10;54.80;;;;;;7368914;19;20143;-43
2022/03/02 05:55:55;;;;;;;21.77;12.38;;;1.00;54.70;;;;;;7374774;19;20126;-42
2022/03/02 05:58:29;;;;;;;19.73;11.93;;;1.00;55.00;;;;;;7373760;19;20130;-43
2022/03/02 06:00:59;;;;;;;16.50;10.45;;;1.10;55.40;;;;;;7369393;19;20139;-43
2022/03/02 06:03:32;;;;;;;18.58;11.80;;;1.00;55.80;;;;;;7375826;19;20127;-43
2022/03/02 06:06:01;;;;;;;16.70;10.57;;;1.10;56.00;;;;;;7377422;19;20139;-43
2022/03/02 06:08:33;;;;;;;16.25;9.88;;;1.20;55.70;;;;;;7372052;19;20135;-42
2022/03/02 06:11:03;;;;;;;19.45;9.98;;;1.20;55.60;;;;;;7366547;19;20128;-42
2022/03/02 06:13:34;;;;;;;19.85;11.00;;;1.30;55.80;;;;;;7367639;19;20148;-44
2022/03/02 06:16:07;;;;;;;17.48;10.90;;;1.40;55.50;;;;;;7364197;19;20135;-44
2022/03/02 06:18:40;;;;;;;20.75;11.23;;;1.40;55.40;;;;;;7375431;19;20131;-42
2022/03/02 06:21:10;;;;;;;18.60;11.18;;;1.40;55.20;;;;;;7375022;19;20614;-42
2022/03/02 06:23:43;;;;;;;19.63;10.35;;;1.50;55.00;;;;;;7372809;19;20720;-43
2022/03/02 06:26:13;;;;;;;21.92;11.45;;;1.50;54.90;;;;;;7370663;19;20480;-42
2022/03/02 06:28:42;;;;;;;14.23;10.00;;;1.60;55.20;;;;;;7373604;19;20151;-43
2022/03/02 06:31:13;;;;;;;18.92;9.98;;;1.60;56.00;;;;;;7369517;19;20123;-43
2022/03/02 06:33:43;;;;;;;15.82;10.32;;;1.60;56.10;;;;;;7371790;19;20151;-43
2022/03/02 06:36:14;;;;;;;13.65;8.88;;;1.70;55.70;;;;;;7373082;19;20501;-44
2022/03/02 06:38:47;;;;;;;13.82;9.32;;;1.70;55.50;;;;;;7373576;19;20139;-42
2022/03/02 06:41:30;;;;;;;16.40;10.35;;;1.80;55.00;;;;;;7370942;19;20139;-42
2022/03/02 06:44:06;;;;;;;17.02;10.15;;;2.00;55.00;;;;;;7363479;19;20131;-45
2022/03/02 06:46:45;;;;;;;16.00;9.70;;;2.10;54.80;;;;;;7367848;19;20135;-42
2022/03/02 06:49:26;;;;;;;16.98;11.07;;;2.30;53.70;;;;;;7366353;19;20147;-43
2022/03/02 06:52:01;;;;;;;17.90;10.45;;;2.30;52.80;;;;;;7370021;19;20143;-43
2022/03/02 06:54:36;;;;;;;20.67;10.93;;;2.30;53.60;;;;;;7373194;19;20135;-43
2022/03/02 06:57:10;;;;;;;15.85;10.32;;;2.20;54.00;;;;;;7368135;19;20139;-43
2022/03/02 06:59:43;;;;;;;23.27;14.25;;;2.20;53.80;;;;;;7368896;19;20143;-44
2022/03/02 07:02:15;;;;;;;22.77;13.55;;;2.20;53.90;;;;;;7372354;19;20503;-43
2022/03/02 07:04:47;;;;;;;18.60;11.63;;;2.40;53.60;;;;;;7383680;19;20127;-43
2022/03/02 07:07:16;;;;;;;23.67;13.73;;;2.70;52.70;;;;;;7381353;19;20139;-43
2022/03/02 07:09:49;;;;;;;25.33;14.80;;;2.70;52.00;;;;;;7381079;19;20128;-43
2022/03/02 07:12:20;;;;;;;20.48;14.45;;;2.70;52.10;;;;;;7382637;19;20131;-43
2022/03/02 07:14:53;;;;;;;33.63;19.05;;;2.80;52.10;;;;;;7382340;19;20135;-43
2022/03/02 07:17:26;;;;;;;22.20;15.75;;;2.90;51.10;;;;;;7383921;19;20143;-43
2022/03/02 07:19:58;;;;;;;29.90;17.10;;;3.10;50.90;;;;;;7381105;19;20135;-43
2022/03/02 07:22:33;;;;;;;25.55;15.55;;;3.30;50.40;;;;;;7377297;19;20128;-45
2022/03/02 07:25:08;;;;;;;22.23;14.10;;;3.30;50.00;;;;;;7375826;19;20155;-43
2022/03/02 07:27:41;;;;;;;24.67;13.48;;;3.20;50.00;;;;;;7380780;19;20150;-43
2022/03/02 07:30:13;;;;;;;21.88;14.27;;;3.30;49.60;;;;;;7374953;19;20131;-43
2022/03/02 07:32:46;;;;;;;17.05;12.35;;;3.40;49.60;;;;;;7373511;19;20173;-43
2022/03/02 07:35:18;;;;;;;18.73;12.18;;;3.50;49.50;;;;;;7373527;19;20155;-43
2022/03/02 07:37:48;;;;;;;23.55;14.00;;;3.70;49.50;;;;;;7381416;19;20473;-43
2022/03/02 07:40:22;;;;;;;24.75;12.30;;;3.70;49.10;;;;;;7375922;19;20606;-45
2022/03/02 07:42:53;;;;;;;21.30;13.15;;;3.80;49.10;;;;;;7369708;19;20131;-43
2022/03/02 07:45:22;;;;;;;17.40;12.13;;;3.90;49.10;;;;;;7366438;19;20242;-43
2022/03/02 07:47:54;;;;;;;19.95;11.93;;;3.90;48.70;;;;;;7375862;19;20147;-44
2022/03/02 07:50:27;;;;;;;19.42;12.10;;;3.90;48.40;;;;;;7372241;19;20159;-44
2022/03/02 07:53:04;;;;;;;16.30;12.27;;;4.00;48.80;;;;;;7373280;19;20606;-43
2022/03/02 07:55:38;;;;;;;17.77;12.20;;;4.10;48.10;;;;;;7370800;19;21296;-44
2022/03/02 07:58:07;;;;;;;19.13;11.95;;;4.20;48.10;;;;;;7378030;19;20136;-44
2022/03/02 08:00:37;;;;;;;19.35;11.85;;;4.40;48.10;;;;;;7373080;19;20127;-44
2022/03/02 08:03:10;;;;;;;19.60;12.18;;;4.60;48.00;;;;;;7377015;19;20135;-44
2022/03/02 08:05:45;;;;;;;21.00;12.48;;;4.80;47.60;;;;;;7372607;19;20127;-44
2022/03/02 08:08:18;;;;;;;18.27;12.35;;;5.00;47.20;;;;;;7372937;19;20627;-44
2022/03/02 08:10:50;;;;;;;16.85;11.68;;;5.10;46.80;;;;;;7371207;19;20140;-44
2022/03/02 08:13:20;;;;;;;19.45;12.63;;;5.30;46.60;;;;;;7371579;19;20153;-44
2022/03/02 08:15:53;;;;;;;26.63;13.40;;;5.40;46.50;;;;;;7361882;19;20622;-44
2022/03/02 08:18:22;;;;;;;20.42;12.77;;;5.60;46.00;;;;;;7366786;19;20136;-44
2022/03/02 08:20:57;;;;;;;20.83;12.73;;;5.80;45.90;;;;;;7371602;19;20128;-44
2022/03/02 08:23:36;;;;;;;19.90;12.25;;;5.90;45.30;;;;;;7368023;19;20960;-44
2022/03/02 08:26:08;;;;;;;22.83;12.77;;;5.90;45.50;;;;;;7371908;19;20138;-45
2022/03/02 08:28:39;;;;;;;19.48;13.63;;;6.10;45.20;;;;;;7370530;19;20131;-45
2022/03/02 08:31:10;;;;;;;19.63;13.45;;;6.10;44.50;;;;;;7370780;19;20134;-45
2022/03/02 08:33:44;;;;;;;22.25;12.90;;;6.10;44.70;;;;;;7371610;19;20954;-45
2022/03/02 08:36:15;;;;;;;25.08;12.55;;;6.10;45.00;;;;;;7376588;19;20160;-45
2022/03/02 08:38:45;;;;;;;20.30;13.32;;;6.20;44.60;;;;;;7374216;19;20150;-45
2022/03/02 08:41:23;;;;;;;17.88;12.93;;;6.10;44.40;;;;;;7376814;19;20608;-45
2022/03/02 08:43:55;;;;;;;24.35;13.82;;;6.20;44.70;;;;;;7371302;19;20143;-45
2022/03/02 08:46:27;;;;;;;20.30;13.23;;;6.40;44.00;;;;;;7378406;19;20639;-45
2022/03/02 08:49:02;;;;;;;18.05;13.20;;;6.50;44.00;;;;;;7381409;19;20153;-45
2022/03/02 08:51:34;;;;;;;22.33;14.05;;;6.60;43.80;;;;;;7382208;19;20171;-44
2022/03/02 08:54:07;;;;;;;18.58;13.02;;;6.80;43.30;;;;;;7371885;19;20139;-45
2022/03/02 08:56:44;;;;;;;22.23;14.15;;;7.10;42.90;;;;;;7382559;19;20131;-45
2022/03/02 08:59:17;;;;;;;25.02;12.80;;;7.20;42.70;;;;;;7378324;19;20135;-45
2022/03/02 09:01:51;;;;;;;25.05;15.30;;;7.30;42.50;;;;;;7378817;19;20482;-44
2022/03/02 09:04:24;;;;;;;27.45;14.60;;;7.30;42.20;;;;;;7379761;19;20131;-45
2022/03/02 09:06:54;;;;;;;20.42;13.30;;;7.50;42.40;;;;;;7379000;19;20136;-43
2022/03/02 09:09:26;;;;;;;18.65;13.40;;;7.90;41.40;;;;;;7377430;19;20140;-44
2022/03/02 09:11:59;;;;;;;19.73;13.50;;;8.10;41.10;;;;;;7372980;19;20139;-45
2022/03/02 09:14:31;;;;;;;23.00;13.47;;;8.40;40.40;;;;;;7374175;19;20905;-45
2022/03/02 09:17:03;;;;;;;22.07;14.57;;;8.80;40.00;;;;;;7377003;19;20498;-46
2022/03/02 09:19:33;;;;;;;25.50;14.07;;;9.10;39.20;;;;;;7376986;19;20800;-44
2022/03/02 09:22:03;;;;;;;24.63;13.50;;;9.60;38.60;;;;;;7376936;19;20420;-44
2022/03/02 09:24:34;;;;;;;24.87;14.47;;;10.50;36.60;;;;;;7379120;19;20373;-44
2022/03/02 09:27:11;;;;;;;19.17;14.57;;;11.00;35.70;;;;;;7378156;19;20919;-45
2022/03/02 09:29:45;;;;;;;19.20;13.90;;;11.80;34.50;;;;;;7376338;19;20379;-44
2022/03/02 09:32:18;;;;;;;22.80;16.23;;;12.30;33.10;;;;;;7376226;19;20391;-44
2022/03/02 09:34:53;;;;;;;24.77;14.37;;;12.60;32.40;;;;;;7376648;19;20432;-45
2022/03/02 09:37:25;;;;;;;20.77;14.80;;;12.60;31.90;;;;;;7375883;19;20511;-45
2022/03/02 09:39:55;;;;;;;24.80;15.23;;;12.60;31.60;;;;;;7380937;19;20427;-43
2022/03/02 09:42:32;;;;;;;22.20;15.20;;;12.20;32.00;;;;;;7376986;19;20384;-45
2022/03/02 09:45:04;;;;;;;22.60;15.47;;;12.60;32.50;;;;;;7374534;19;20958;-44
2022/03/02 09:47:47;;;;;;;20.20;14.43;;;12.60;31.60;;;;;;7378707;19;20368;-45
2022/03/02 09:50:20;;;;;;;17.70;13.70;;;12.30;32.20;;;;;;7376990;19;20395;-47
2022/03/02 09:52:55;;;;;;;18.37;14.70;;;11.90;32.30;;;;;;7377491;19;20431;-44
2022/03/02 09:55:27;;;;;;;17.83;14.83;;;11.60;32.30;;;;;;7376321;19;20499;-45
2022/03/02 09:58:03;;;;;;;16.90;13.47;;;11.30;33.20;;;;;;7377761;19;21110;-46
2022/03/02 10:00:35;;;;;;;22.73;14.00;;;11.20;33.00;;;;;;7375238;19;20372;-45
2022/03/02 10:03:13;;;;;;;20.80;13.60;;;11.60;32.50;;;;;;7375054;19;20776;-46
2022/03/02 10:05:50;;;;;;;17.50;14.20;;;12.10;31.70;;;;;;7377060;19;20376;-46
2022/03/02 10:08:24;;;;;;;20.10;13.97;;;12.30;31.50;;;;;;7376466;19;21317;-46
2022/03/02 10:11:04;;;;;;;20.03;14.47;;;12.50;31.50;;;;;;7377966;19;20898;-46
2022/03/02 10:13:38;;;;;;;20.10;13.70;;;12.60;30.90;;;;;;7373778;19;20372;-46
2022/03/02 10:16:12;;;;;;;20.90;14.33;;;13.20;31.20;;;;;;7377262;19;20360;-46
2022/03/02 10:18:42;;;;;;;21.07;12.77;;;14.00;29.80;;;;;;7378931;19;20470;-47
2022/03/02 10:21:15;;;;;;;23.23;15.67;;;14.80;28.90;;;;;;7377254;19;20369;-47
2022/03/02 10:23:50;;;;;;;20.20;15.80;;;15.50;27.70;;;;;;7377789;19;20408;-47
2022/03/02 10:26:25;;;;;;;21.03;14.77;;;15.70;27.10;;;;;;7377548;19;21018;-47
2022/03/02 10:29:03;;;;;;;16.50;13.27;;;15.50;26.90;;;;;;7375920;19;20408;-47
2022/03/02 10:31:45;;;;;;;20.73;14.40;;;15.10;27.40;;;;;;7377074;19;20889;-47
2022/03/02 10:34:37;;;;;;;19.23;14.43;;;14.80;27.90;;;;;;7376205;19;20840;-47
2022/03/02 10:37:13;;;;;;;15.50;12.70;;;14.20;28.20;;;;;;7374628;19;20439;-47
2022/03/02 10:39:54;;;;;;;16.67;13.07;;;14.00;28.60;;;;;;7374783;19;20379;-47
2022/03/02 10:42:30;;;;;;;20.50;14.17;;;13.60;29.20;;;;;;7377144;19;20391;-46
2022/03/02 10:45:21;;;;;;;16.83;13.40;;;13.20;29.30;;;;;;7374884;19;20399;-47
2022/03/02 10:48:05;;;;;;;19.23;14.30;;;12.90;29.70;;;;;;7373125;19;20447;-46
2022/03/02 10:50:37;;;;;;;21.60;13.07;;;12.40;30.00;;;;;;7374947;19;20384;-46
2022/03/02 10:53:12;;;;;;;19.30;12.90;;;11.90;30.70;;;;;;7373818;19;20387;-47
2022/03/02 10:55:45;;;;;;;17.30;13.40;;;11.60;31.10;;;;;;7375561;19;20383;-47
2022/03/02 10:58:19;;;;;;;19.03;13.17;;;11.40;31.60;;;;;;7375565;19;20501;-46
2022/03/02 11:00:53;;;;;;;17.53;12.47;;;11.00;32.20;;;;;;7374257;19;20426;-46
2022/03/02 11:03:29;;;;;;;19.63;12.90;;;10.80;32.70;;;;;;7372619;19;20368;-46
2022/03/02 11:06:03;;;;;;;19.60;13.70;;;10.50;32.90;;;;;;7376894;19;20784;-46
2022/03/02 11:08:33;;;;;;;15.93;12.77;;;10.30;33.30;;;;;;7372544;19;20946;-46
2022/03/02 11:11:04;;;;;;;18.57;13.43;;;10.10;34.20;;;;;;7376224;19;20389;-46
2022/03/02 11:13:36;;;;;;;20.83;15.40;;;9.90;35.40;;;;;;7374659;19;20379;-47
2022/03/02 11:16:09;;;;;;;21.67;14.17;;;9.90;35.30;;;;;;7375342;19;20825;-46
2022/03/02 11:18:40;;;;;;;23.03;15.80;;;10.00;34.50;;;;;;7373650;19;20922;-46
2022/03/02 11:21:14;;;;;;;19.67;12.97;;;10.20;34.60;;;;;;7375344;19;20937;-46
2022/03/02 11:23:47;;;;;;;27.40;13.50;;;10.30;34.10;;;;;;7372319;19;21034;-46
2022/03/02 11:26:24;;;;;;;21.13;15.10;;;10.40;34.10;;;;;;7369837;19;20383;-46
2022/03/02 11:28:55;;;;;;;17.73;12.50;;;10.60;33.80;;;;;;7374565;19;20910;-46
2022/03/02 11:31:30;;;;;;;17.40;11.43;;;10.60;33.40;;;;;;7374840;19;20356;-46
2022/03/02 11:34:12;;;;;;;18.03;12.90;;;10.80;33.10;;;;;;7373882;19;21389;-46
2022/03/02 11:36:48;;;;;;;25.27;13.80;;;11.00;32.70;;;;;;7374423;19;20391;-46
2022/03/02 11:39:21;;;;;;;19.47;12.87;;;11.20;32.80;;;;;;7368147;19;20400;-46
2022/03/02 11:41:58;;;;;;;22.67;13.00;;;11.60;32.10;;;;;;7372320;19;20376;-46
2022/03/02 11:44:30;;;;;;;20.27;13.60;;;12.00;31.90;;;;;;7375337;19;20364;-46
2022/03/02 11:47:06;;;;;;;18.73;13.47;;;12.40;31.00;;;;;;7375097;19;20963;-46
2022/03/02 11:49:43;;;;;;;22.03;13.87;;;12.70;30.90;;;;;;7380515;19;20376;-46
2022/03/02 11:52:15;;;;;;;21.73;13.17;;;12.70;30.80;;;;;;7380883;19;20419;-47
2022/03/02 11:54:46;;;;;;;25.77;14.00;;;12.50;30.30;;;;;;7382375;19;20428;-46
2022/03/02 11:57:20;;;;;;;23.87;14.67;;;12.30;31.40;;;;;;7378499;19;20384;-47
2022/03/02 11:59:51;;;;;;;21.63;15.60;;;12.30;30.60;;;;;;7381656;19;20925;-46
2022/03/02 12:02:25;;;;;;;18.93;13.30;;;12.40;30.60;;;;;;7382392;19;20380;-46
2022/03/02 12:05:01;;;;;;;18.20;13.17;;;12.80;30.90;;;;;;7380836;19;20379;-46
2022/03/02 12:07:41;;;;;;;16.27;12.10;;;13.20;29.90;;;;;;7381291;19;20376;-46
2022/03/02 12:10:20;;;;;;;16.40;12.50;;;13.70;29.60;;;;;;7380879;19;20383;-46
2022/03/02 12:12:54;;;;;;;21.00;13.57;;;14.60;28.30;;;;;;7379310;19;20383;-46
2022/03/02 12:15:25;;;;;;;20.43;12.90;;;15.00;27.40;;;;;;7382433;19;20415;-46
2022/03/02 12:18:11;;;;;;;17.13;12.57;;;14.70;27.60;;;;;;7379429;19;20411;-46
2022/03/02 12:20:47;;;;;;;22.40;14.77;;;14.40;28.00;;;;;;7380882;19;20385;-46
2022/03/02 12:23:24;;;;;;;17.83;12.73;;;14.50;27.90;;;;;;7380144;19;20368;-46
2022/03/02 12:25:54;;;;;;;16.10;13.30;;;14.70;27.00;;;;;;7378967;19;20736;-46
2022/03/02 12:28:26;;;;;;;14.93;13.33;;;15.00;27.10;;;;;;7377567;19;20376;-46
2022/03/02 12:30:58;;;;;;;16.17;12.40;;;14.90;27.30;;;;;;7379738;19;20384;-46
2022/03/02 12:33:31;;;;;;;21.43;12.70;;;14.50;27.30;;;;;;7379427;19;20487;-46
2022/03/02 12:36:00;;;;;;;21.30;13.73;;;14.10;27.40;;;;;;7380808;19;20383;-46
2022/03/02 12:38:30;;;;;;;20.97;12.23;;;14.00;27.80;;;;;;7383901;19;21401;-46
2022/03/02 12:40:59;;;;;;;16.43;12.07;;;13.80;27.50;;;;;;7378110;19;20387;-45
2022/03/02 12:43:32;;;;;;;17.07;13.10;;;13.60;28.20;;;;;;7376276;19;20711;-46
2022/03/02 12:46:04;;;;;;;18.30;12.30;;;13.40;27.90;;;;;;7377666;19;20453;-46
2022/03/02 12:48:42;;;;;;;17.83;13.03;;;13.20;28.00;;;;;;7376994;19;20734;-46
2022/03/02 12:51:14;;;;;;;17.10;13.00;;;12.70;28.40;;;;;;7380011;19;20379;-46
2022/03/02 12:53:47;;;;;;;14.43;12.47;;;12.30;28.80;;;;;;7377243;19;20759;-46
2022/03/02 12:56:17;;;;;;;16.87;11.93;;;12.00;29.20;;;;;;7377678;19;20902;-46
2022/03/02 12:58:47;;;;;;;17.50;12.70;;;11.70;29.80;;;;;;7376955;19;20384;-46
2022/03/02 13:01:17;;;;;;;18.27;12.00;;;11.50;30.40;;;;;;7376905;19;20388;-46
2022/03/02 13:03:56;;;;;;;15.80;11.27;;;11.30;29.90;;;;;;7378389;19;20380;-46
2022/03/02 13:06:37;;;;;;;17.63;13.30;;;11.30;30.30;;;;;;7377744;19;20376;-46